createdAt,value
2023-02-23T00:02:15.250Z,20.73
2023-02-23T00:04:42.150Z,19.57
2023-02-23T00:07:09.320Z,20.63
2023-02-23T00:12:20.818Z,19.93
2023-02-23T00:14:47.565Z,19.50
2023-02-23T00:17:14.954Z,20.20
2023-02-23T00:19:43.773Z,20.20
2023-02-23T00:24:57.554Z,24.20
2023-02-23T00:27:24.180Z,22.00
2023-02-23T00:29:51.040Z,24.40
2023-02-23T00:32:21.411Z,20.83
2023-02-23T00:37:35.646Z,20.40
2023-02-23T00:40:02.257Z,21.67
2023-02-23T00:42:32.285Z,21.93
2023-02-23T00:47:52.369Z,23.53
2023-02-23T00:53:03.195Z,23.40
2023-02-23T00:58:14.092Z,22.20
2023-02-23T01:00:42.329Z,23.53
2023-02-23T01:03:08.986Z,20.70
2023-02-23T01:05:36.106Z,22.90
2023-02-23T01:08:02.745Z,24.67
2023-02-23T01:10:29.423Z,23.37
2023-02-23T01:12:56.056Z,23.80
2023-02-23T01:15:23.257Z,25.03
2023-02-23T01:17:49.938Z,22.40
2023-02-23T01:20:20.008Z,24.83
2023-02-23T01:22:47.730Z,24.50
2023-02-23T01:25:14.768Z,20.93
2023-02-23T01:27:41.455Z,23.97
2023-02-23T01:30:09.652Z,23.87
2023-02-23T01:32:37.615Z,21.97
2023-02-23T01:35:10.703Z,24.13
2023-02-23T01:37:40.569Z,22.07
2023-02-23T01:40:15.558Z,23.00
2023-02-23T01:42:45.731Z,22.70
2023-02-23T02:17:30.094Z,17.23
2023-02-23T02:20:15.054Z,19.57
2023-02-23T02:23:08.429Z,16.60
2023-02-23T02:25:37.036Z,15.50
2023-02-23T02:31:11.342Z,16.70
2023-02-23T02:33:58.409Z,14.67
2023-02-23T02:36:41.296Z,16.57
2023-02-23T02:39:34.827Z,16.20
2023-02-23T02:42:02.634Z,12.33
2023-02-23T02:44:49.893Z,14.07
2023-02-23T02:47:22.823Z,12.23
2023-02-23T02:52:44.935Z,13.13
2023-02-23T02:55:13.608Z,16.10
2023-02-23T02:57:40.884Z,15.67
2023-02-23T03:03:47.503Z,16.20
2023-02-23T03:06:33.660Z,12.07
2023-02-23T03:09:27.454Z,14.10
2023-02-23T03:15:26.269Z,12.03
2023-02-23T03:21:34.908Z,15.70
2023-02-23T03:27:49.075Z,20.93
2023-02-23T03:33:54.017Z,12.47
2023-02-23T03:36:42.201Z,9.33
2023-02-23T03:39:30.786Z,10.93
2023-02-23T03:42:15.928Z,14.40
2023-02-23T03:45:02.110Z,10.73
2023-02-23T03:47:50.330Z,11.13
2023-02-23T03:50:54.083Z,10.37
2023-02-23T03:53:42.021Z,11.73
2023-02-23T03:56:27.325Z,13.23
2023-02-23T04:02:16.970Z,10.63
2023-02-23T04:05:02.237Z,9.60
2023-02-23T04:07:47.553Z,10.63
2023-02-23T04:10:32.767Z,10.87
2023-02-23T04:13:16.721Z,10.33
2023-02-23T04:18:29.141Z,10.00
2023-02-23T04:20:55.850Z,11.17
2023-02-23T04:23:25.380Z,9.20
2023-02-23T04:25:52.930Z,13.10
2023-02-23T04:31:04.215Z,10.87
2023-02-23T04:33:30.970Z,9.33
2023-02-23T04:35:57.755Z,10.03
2023-02-23T04:38:24.314Z,8.30
2023-02-23T04:40:51.045Z,9.07
2023-02-23T04:43:17.612Z,10.27
2023-02-23T04:45:44.500Z,9.43
2023-02-23T04:50:55.572Z,9.80
2023-02-23T04:56:06.149Z,11.73
2023-02-23T04:58:33.078Z,9.87
2023-02-23T05:01:06.678Z,10.07
2023-02-23T05:03:33.391Z,9.47
2023-02-23T05:06:00.031Z,12.13
2023-02-23T05:08:26.643Z,10.93
2023-02-23T05:10:53.241Z,11.27
2023-02-23T05:13:20.690Z,11.57
2023-02-23T05:15:47.424Z,11.13
2023-02-23T05:18:14.043Z,11.03
2023-02-23T05:20:43.012Z,10.23
2023-02-23T05:23:09.565Z,13.03
2023-02-23T05:25:38.869Z,10.50
2023-02-23T05:28:05.632Z,12.97
2023-02-23T05:30:33.234Z,9.60
2023-02-23T05:32:59.956Z,11.27
2023-02-23T05:35:26.591Z,9.80
2023-02-23T05:37:53.166Z,11.27
2023-02-23T05:43:04.190Z,13.63
2023-02-23T05:45:30.818Z,11.17
2023-02-23T05:47:57.439Z,11.57
2023-02-23T05:50:23.991Z,13.20
2023-02-23T05:55:37.613Z,11.97
2023-02-23T05:58:05.622Z,10.30
2023-02-23T06:00:32.426Z,10.20
2023-02-23T06:02:58.962Z,11.63
2023-02-23T06:08:09.989Z,13.40
2023-02-23T06:10:36.617Z,15.03
2023-02-23T06:13:03.960Z,14.07
2023-02-23T06:15:30.564Z,24.37
2023-02-23T06:17:57.655Z,41.70
2023-02-23T06:20:24.205Z,30.77
2023-02-23T06:22:51.004Z,34.77
2023-02-23T06:25:17.763Z,27.57
2023-02-23T06:27:46.277Z,66.13
2023-02-23T06:30:13.227Z,107.00
2023-02-23T06:32:40.033Z,57.33
2023-02-23T06:35:10.210Z,20.03
2023-02-23T06:37:36.882Z,12.57
2023-02-23T06:40:04.091Z,14.10
2023-02-23T06:42:30.685Z,16.87
2023-02-23T06:44:57.218Z,16.37
2023-02-23T06:47:23.860Z,15.53
2023-02-23T06:49:50.420Z,16.10
2023-02-23T06:52:17.202Z,16.93
2023-02-23T06:54:44.221Z,18.00
2023-02-23T06:57:11.119Z,15.97
2023-02-23T06:59:38.045Z,15.30
2023-02-23T07:02:07.679Z,16.20
2023-02-23T07:04:34.322Z,14.37
2023-02-23T07:07:01.648Z,14.87
2023-02-23T07:09:30.583Z,14.90
2023-02-23T07:11:59.600Z,15.63
2023-02-23T07:14:27.349Z,14.93
2023-02-23T07:19:39.107Z,13.33
2023-02-23T07:22:06.147Z,10.87
2023-02-23T07:24:32.974Z,12.47
2023-02-23T07:26:59.623Z,13.67
2023-02-23T07:29:28.292Z,13.07
2023-02-23T07:31:55.293Z,15.80
2023-02-23T07:34:22.068Z,15.73
2023-02-23T07:36:48.816Z,12.70
2023-02-23T07:39:15.606Z,16.03
2023-02-23T07:41:42.182Z,16.10
2023-02-23T07:44:17.654Z,17.33
2023-02-23T07:46:46.429Z,15.30
2023-02-23T07:49:13.916Z,14.30
2023-02-23T07:54:26.261Z,10.63
2023-02-23T07:56:52.971Z,12.93
2023-02-23T07:59:19.629Z,14.40
2023-02-23T08:01:46.222Z,15.73
2023-02-23T08:04:12.933Z,15.27
2023-02-23T08:06:39.573Z,15.27
2023-02-23T08:09:06.324Z,13.27
2023-02-23T08:11:33.071Z,13.53
2023-02-23T08:14:02.528Z,12.73
2023-02-23T08:16:29.561Z,16.27
2023-02-23T08:18:56.695Z,13.43
2023-02-23T08:21:23.257Z,14.00
2023-02-23T08:23:49.953Z,13.63
2023-02-23T08:26:16.648Z,13.10
2023-02-23T08:28:45.829Z,12.67
2023-02-23T08:31:13.118Z,14.33
2023-02-23T08:33:39.968Z,15.27
2023-02-23T08:36:07.255Z,15.37
2023-02-23T08:38:36.658Z,15.97
2023-02-23T08:41:04.052Z,13.80
2023-02-23T08:43:30.714Z,16.20
2023-02-23T08:45:57.415Z,13.17
2023-02-23T08:48:24.696Z,13.63
2023-02-23T08:50:51.361Z,14.23
2023-02-23T08:53:17.971Z,14.70
2023-02-23T08:58:30.526Z,15.33
2023-02-23T09:00:57.500Z,15.33
2023-02-23T09:03:25.971Z,14.37
2023-02-23T09:05:52.714Z,14.93
2023-02-23T09:11:03.654Z,18.63
2023-02-23T09:13:30.302Z,19.00
2023-02-23T09:15:56.985Z,17.63
2023-02-23T09:18:24.150Z,17.77
2023-02-23T09:20:50.867Z,17.47
2023-02-23T09:23:17.515Z,18.47
2023-02-23T09:25:44.436Z,18.90
2023-02-23T09:28:15.217Z,17.43
2023-02-23T09:30:42.186Z,18.00
2023-02-23T09:33:08.870Z,14.60
2023-02-23T09:35:36.425Z,16.00
2023-02-23T09:38:06.559Z,18.27
2023-02-23T09:40:50.012Z,16.27
2023-02-23T09:43:26.111Z,15.30
2023-02-23T09:48:46.480Z,11.23
2023-02-23T09:51:18.107Z,17.03
2023-02-23T09:53:46.411Z,13.10
2023-02-23T09:56:21.959Z,15.20
2023-02-23T09:58:50.409Z,14.60
2023-02-23T10:01:21.076Z,18.10
2023-02-23T10:03:53.209Z,11.67
2023-02-23T10:06:21.161Z,14.83
2023-02-23T10:08:51.041Z,11.70
2023-02-23T10:11:26.927Z,15.07
2023-02-23T10:13:55.459Z,15.80
2023-02-23T10:16:28.232Z,16.80
2023-02-23T10:18:58.827Z,15.13
2023-02-23T10:24:28.754Z,14.20
2023-02-23T10:29:51.454Z,12.17
2023-02-23T10:35:01.896Z,11.93
2023-02-23T10:37:28.549Z,17.10
2023-02-23T10:39:55.253Z,13.20
2023-02-23T10:42:28.860Z,15.07
2023-02-23T10:44:56.230Z,19.53
2023-02-23T10:47:23.497Z,15.33
2023-02-23T10:52:41.605Z,14.03
2023-02-23T10:55:09.151Z,16.77
2023-02-23T10:57:39.941Z,17.17
2023-02-23T11:00:15.975Z,18.03
2023-02-23T11:02:46.410Z,17.07
2023-02-23T11:08:32.613Z,18.97
2023-02-23T11:10:59.357Z,16.83
2023-02-23T11:13:29.582Z,16.03
2023-02-23T11:16:13.535Z,16.20
2023-02-23T11:18:44.560Z,18.03
2023-02-23T11:21:11.888Z,17.87
2023-02-23T11:23:39.213Z,17.70
2023-02-23T11:26:35.202Z,18.67
2023-02-23T11:31:54.692Z,18.67
2023-02-23T11:34:23.026Z,18.80
2023-02-23T11:37:01.500Z,17.63
2023-02-23T11:39:28.273Z,17.73
2023-02-23T11:42:25.435Z,16.20
2023-02-23T11:44:52.241Z,17.83
2023-02-23T11:47:20.605Z,16.40
2023-02-23T11:49:47.393Z,16.30
2023-02-23T11:55:03.041Z,15.20
2023-02-23T12:00:21.570Z,16.53
2023-02-23T12:05:36.524Z,16.17
2023-02-23T12:08:05.376Z,15.93
2023-02-23T12:10:38.992Z,16.10
2023-02-23T12:13:10.411Z,17.80
2023-02-23T12:15:41.998Z,15.83
2023-02-23T12:18:11.960Z,18.73
2023-02-23T12:20:41.557Z,17.73
2023-02-23T12:23:12.899Z,19.40
2023-02-23T12:25:47.511Z,17.40
2023-02-23T12:28:19.199Z,14.70
2023-02-23T12:30:46.222Z,19.30
2023-02-23T12:36:17.000Z,19.90
2023-02-23T12:39:07.059Z,17.07
2023-02-23T12:41:36.466Z,14.27
2023-02-23T12:44:18.425Z,22.20
2023-02-23T12:46:51.263Z,18.97
2023-02-23T12:49:20.750Z,14.33
2023-02-23T12:51:51.974Z,22.77
2023-02-23T12:54:19.346Z,17.30
2023-02-23T12:59:52.853Z,18.83
2023-02-23T13:02:38.418Z,18.93
2023-02-23T13:05:22.683Z,24.80
2023-02-23T13:07:57.127Z,17.77
2023-02-23T13:10:48.796Z,19.17
2023-02-23T13:13:24.564Z,19.60
2023-02-23T13:15:51.702Z,22.90
2023-02-23T13:18:24.357Z,20.80
2023-02-23T13:20:52.141Z,21.93
2023-02-23T13:23:21.574Z,19.20
2023-02-23T13:25:55.638Z,19.17
2023-02-23T13:28:32.617Z,19.10
2023-02-23T13:33:44.546Z,20.27
2023-02-23T13:36:13.003Z,23.03
2023-02-23T13:38:48.475Z,18.27
2023-02-23T13:41:18.448Z,18.90
2023-02-23T13:44:11.804Z,18.63
2023-02-23T13:46:47.603Z,21.43
2023-02-23T13:49:20.614Z,25.13
2023-02-23T13:51:55.620Z,22.17
2023-02-23T13:54:24.320Z,21.10
2023-02-23T13:56:53.207Z,24.83
2023-02-23T13:59:21.480Z,20.10
2023-02-23T14:01:55.901Z,19.70
2023-02-23T14:04:22.787Z,22.27
2023-02-23T14:06:53.840Z,20.97
2023-02-23T14:09:23.987Z,22.93
2023-02-23T14:11:51.235Z,22.00
2023-02-23T14:17:19.259Z,24.00
2023-02-23T14:19:51.823Z,23.60
2023-02-23T14:22:22.092Z,21.77
2023-02-23T14:25:08.431Z,24.37
2023-02-23T14:27:41.841Z,24.03
2023-02-23T14:30:11.519Z,24.97
2023-02-23T14:32:38.976Z,21.70
2023-02-23T14:35:06.456Z,20.80
2023-02-23T14:37:36.915Z,20.17
2023-02-23T14:40:19.749Z,22.73
2023-02-23T14:45:31.520Z,23.47
2023-02-23T14:48:10.280Z,20.70
2023-02-23T14:50:37.655Z,26.70
2023-02-23T14:53:04.517Z,25.60
2023-02-23T14:58:27.081Z,22.27
2023-02-23T15:03:38.445Z,25.90
2023-02-23T15:06:05.434Z,22.40
2023-02-23T15:08:33.415Z,17.77
2023-02-23T15:13:52.543Z,22.63
2023-02-23T15:16:23.206Z,26.67
2023-02-23T15:18:51.934Z,23.10
2023-02-23T15:21:20.371Z,25.20
2023-02-23T15:23:51.016Z,26.07
2023-02-23T15:26:27.743Z,27.10
2023-02-23T15:28:54.639Z,22.53
2023-02-23T15:31:21.836Z,27.47
2023-02-23T15:33:50.895Z,23.67
2023-02-23T15:36:28.205Z,20.43
2023-02-23T15:38:55.321Z,28.33
2023-02-23T15:41:29.556Z,27.37
2023-02-23T15:44:02.107Z,27.17
2023-02-23T15:46:28.896Z,27.07
2023-02-23T15:48:55.960Z,27.90
2023-02-23T15:51:31.287Z,26.47
2023-02-23T15:53:58.232Z,27.73
2023-02-23T15:56:27.657Z,26.27
2023-02-23T15:58:58.276Z,34.27
2023-02-23T16:01:25.930Z,35.97
2023-02-23T16:04:02.486Z,35.50
2023-02-23T16:06:33.399Z,28.40
2023-02-23T16:09:22.259Z,27.03
2023-02-23T16:15:41.206Z,33.97
2023-02-23T16:18:20.524Z,32.50
2023-02-23T16:20:48.291Z,30.57
2023-02-23T16:23:25.247Z,28.67
2023-02-23T16:26:24.217Z,30.73
2023-02-23T16:28:54.056Z,32.23
2023-02-23T16:31:29.779Z,29.37
2023-02-23T16:34:01.781Z,31.90
2023-02-23T16:36:35.305Z,30.43
2023-02-23T16:39:02.897Z,30.10
2023-02-23T17:32:54.312Z,26.63
2023-02-23T17:45:20.911Z,25.53
2023-02-23T18:30:01.699Z,26.63
2023-02-23T18:39:52.702Z,35.40
2023-02-23T18:42:20.407Z,31.07
2023-02-23T18:44:47.454Z,34.30
2023-02-23T18:47:17.138Z,36.47
2023-02-23T18:49:44.328Z,34.93
2023-02-23T18:52:12.472Z,33.73
2023-02-23T18:57:26.296Z,33.70
2023-02-23T18:59:53.073Z,30.50
2023-02-23T19:02:20.537Z,35.50
2023-02-23T19:05:06.957Z,41.70
2023-02-23T19:07:36.148Z,32.97
2023-02-23T19:10:03.324Z,35.07
2023-02-23T19:12:33.651Z,36.23
2023-02-23T19:15:00.463Z,36.27
2023-02-23T19:17:29.001Z,36.80
2023-02-23T19:19:56.307Z,41.53
2023-02-23T19:22:24.834Z,37.30
2023-02-23T19:24:51.604Z,36.57
2023-02-23T19:27:18.507Z,35.87
2023-02-23T19:29:48.172Z,37.83
2023-02-23T19:32:23.886Z,34.10
2023-02-23T19:34:52.670Z,38.33
2023-02-23T19:37:19.889Z,37.30
2023-02-23T19:39:46.761Z,34.53
2023-02-23T19:42:18.287Z,39.87
2023-02-23T19:47:29.475Z,32.50
2023-02-23T19:49:57.164Z,44.07
2023-02-23T19:52:24.827Z,45.03
2023-02-23T19:54:51.629Z,41.80
2023-02-23T19:57:19.729Z,40.87
2023-02-23T19:59:46.414Z,43.33
2023-02-23T20:02:14.442Z,36.60
2023-02-23T20:07:27.382Z,47.83
2023-02-23T20:09:54.157Z,36.37
2023-02-23T20:12:20.956Z,42.40
2023-02-23T20:14:49.605Z,45.47
2023-02-23T20:17:16.540Z,45.00
2023-02-23T20:19:44.371Z,47.77
2023-02-23T20:22:12.471Z,37.53
2023-02-23T20:24:39.289Z,38.63
2023-02-23T20:27:06.158Z,48.60
2023-02-23T20:29:34.477Z,41.00
2023-02-23T20:32:02.822Z,42.73
2023-02-23T20:34:30.172Z,47.37
2023-02-23T20:36:57.028Z,37.90
2023-02-23T20:39:28.265Z,48.17
2023-02-23T20:41:55.141Z,45.70
2023-02-23T20:44:22.655Z,40.20
2023-02-23T20:49:34.141Z,50.80
2023-02-23T20:52:02.256Z,44.47
2023-02-23T20:54:29.516Z,49.67
2023-02-23T20:56:59.393Z,44.87
2023-02-23T21:02:15.638Z,48.03
2023-02-23T21:04:44.482Z,53.53
2023-02-23T21:07:13.949Z,50.93
2023-02-23T21:09:40.905Z,43.17
2023-02-23T21:12:10.348Z,52.63
2023-02-23T21:14:37.513Z,46.43
2023-02-23T21:17:04.417Z,42.67
2023-02-23T21:19:31.572Z,46.40
2023-02-23T21:21:59.536Z,46.40
2023-02-23T21:24:29.083Z,41.83
2023-02-23T21:26:56.307Z,47.90
2023-02-23T21:29:24.048Z,49.53
2023-02-23T21:31:51.137Z,55.53
2023-02-23T21:34:21.399Z,44.40
2023-02-23T21:36:51.435Z,60.83
2023-02-23T21:39:18.183Z,41.17
2023-02-23T21:41:44.881Z,33.53
2023-02-23T21:44:11.554Z,44.10
2023-02-23T21:46:38.280Z,55.70
2023-02-23T21:49:10.050Z,53.37
2023-02-23T21:51:40.589Z,48.97
2023-02-23T21:54:07.322Z,51.13
2023-02-23T21:56:34.957Z,52.07
2023-02-23T21:59:01.674Z,57.13
2023-02-23T22:01:29.216Z,58.97
2023-02-23T22:03:57.623Z,63.90
2023-02-23T22:06:25.767Z,46.03
2023-02-23T22:08:52.586Z,61.37
2023-02-23T22:11:20.785Z,54.83
2023-02-23T22:13:48.160Z,59.17
2023-02-23T22:16:17.026Z,53.00
2023-02-23T22:18:43.756Z,43.13
2023-02-23T22:21:12.318Z,51.03
2023-02-23T22:23:44.053Z,58.73
2023-02-23T22:26:10.933Z,56.93
2023-02-23T22:28:37.851Z,62.33
2023-02-23T22:31:08.329Z,56.90
2023-02-23T22:33:35.624Z,47.90
2023-02-23T22:36:02.935Z,57.47
2023-02-23T22:38:31.476Z,49.30
2023-02-23T22:40:59.654Z,58.83
2023-02-23T22:43:27.188Z,50.53
2023-02-23T22:45:55.008Z,56.07
2023-02-23T22:48:23.369Z,60.13
2023-02-23T22:50:50.441Z,48.73
2023-02-23T22:53:17.247Z,58.23
2023-02-23T22:58:32.845Z,52.27
2023-02-23T23:01:06.655Z,58.13
2023-02-23T23:03:36.989Z,60.73
2023-02-23T23:06:04.806Z,58.37
2023-02-23T23:08:35.322Z,55.93
2023-02-23T23:11:04.032Z,53.00
2023-02-23T23:13:37.076Z,54.60
2023-02-23T23:16:16.725Z,56.23
2023-02-23T23:18:54.506Z,47.27
2023-02-23T23:21:23.506Z,54.87
2023-02-23T23:23:50.827Z,53.23
2023-02-23T23:29:07.533Z,43.90
2023-02-23T23:34:21.700Z,52.63
2023-02-23T23:36:53.195Z,51.60
2023-02-23T23:39:20.854Z,50.47
2023-02-23T23:41:50.357Z,53.60
2023-02-23T23:44:17.505Z,56.77
2023-02-23T23:46:44.832Z,53.83
2023-02-23T23:49:12.448Z,60.30
2023-02-23T23:54:31.012Z,55.97
2023-02-23T23:56:58.696Z,53.10
2023-02-23T23:59:25.500Z,56.67
